Brookhaven, Mississippi
Current Conditions -  °F | °C
As of 5:15 AM on Sunday 23 Nov 2014 (Local Time) from K1R7 Reporting Station
Light Rain Light Rain  
Wind Chill: 61°   Ceiling: 300
Heat Index: 61°   Visibility: 3mi
Dew Point: 61°   Wind: 7mph
Humidity: 100%   Direction: 110°ESE
Pressure: 29.76"   Gusts: NA
Location:  31.58°N, 90.44°W
Report Text: K1R7 231115Z AUTO 11006KT 3SM -RA OVC003 16/16 A2976 RMK AO2
Loading
Personal Weather Stations






























Interactive Weather Map New forecast layout! Learn more

10-Day Weather Forecast

Advertisements
Track Severe Weather on mobile